Time;durP1;ratioP1;P1;durP2;ratioP2;P2;SDS_P1;SDS_P2;PMS_P1;PMS_P2;Temp;Humidity;BMP_temperature;BMP_pressure;BME280_temperature;BME280_humidity;BME280_pressure;Samples;Min_cycle;Max_cycle;Signal;HPM_P1;HPM_P2
2021/03/10 00:00:27;;;;;;;41.03;25.20;;;;;;;3.16;69.31;96594.91;5075569;28;20040;-72
2021/03/10 00:02:53;;;;;;;41.35;25.65;;;;;;;3.14;69.36;96589.88;5075576;28;20396;-72
2021/03/10 00:05:19;;;;;;;42.05;25.38;;;;;;;3.17;69.52;96593.91;5075526;28;20044;-72
2021/03/10 00:07:46;;;;;;;42.47;26.13;;;;;;;3.14;69.48;96584.69;5075735;28;20488;-73
2021/03/10 00:10:13;;;;;;;38.33;24.35;;;;;;;3.16;69.43;96581.94;5075345;28;20487;-72
2021/03/10 00:12:41;;;;;;;42.42;24.85;;;;;;;3.17;69.62;96583.53;5075017;28;20040;-72
2021/03/10 00:15:10;;;;;;;41.88;24.73;;;;;;;3.18;69.59;96580.00;5075295;28;20055;-72
2021/03/10 00:17:38;;;;;;;40.63;25.10;;;;;;;3.17;69.59;96584.38;5075483;28;20043;-72
2021/03/10 00:20:06;;;;;;;44.55;25.05;;;;;;;3.18;69.72;96585.19;5074881;28;20052;-72
2021/03/10 00:22:32;;;;;;;41.30;25.58;;;;;;;3.16;69.56;96585.34;5074993;28;20052;-72
2021/03/10 00:24:58;;;;;;;42.28;24.25;;;;;;;3.17;69.76;96583.53;5073946;28;20036;-73
2021/03/10 00:27:31;;;;;;;40.65;25.05;;;;;;;3.17;69.61;96583.53;5075080;28;20048;-73
2021/03/10 00:29:59;;;;;;;42.05;24.70;;;;;;;3.17;69.75;96581.78;5064923;28;20040;-73
2021/03/10 00:32:27;;;;;;;40.17;24.55;;;;;;;3.19;69.62;96594.53;5074892;28;20048;-72
2021/03/10 00:34:54;;;;;;;43.30;24.23;;;;;;;3.21;69.87;96606.38;5074963;28;20044;-73
2021/03/10 00:37:23;;;;;;;41.45;24.13;;;;;;;3.22;69.90;96599.41;5074946;28;20032;-73
2021/03/10 00:39:50;;;;;;;38.28;24.92;;;;;;;3.21;69.87;96601.19;5056274;28;20048;-73
2021/03/10 00:42:17;;;;;;;44.25;26.73;;;;;;;3.21;70.00;96603.78;5074872;28;20044;-73
2021/03/10 00:44:43;;;;;;;38.58;23.42;;;;;;;3.20;69.91;96609.94;5074885;28;20033;-72
2021/03/10 00:47:10;;;;;;;39.70;25.63;;;;;;;3.20;69.93;96607.34;5075271;28;20043;-72
2021/03/10 00:49:38;;;;;;;40.72;24.58;;;;;;;3.19;69.90;96608.34;5074400;28;20032;-73
2021/03/10 00:52:05;;;;;;;44.78;24.77;;;;;;;3.20;69.92;96611.72;5074906;28;20409;-73
2021/03/10 00:54:32;;;;;;;42.65;25.98;;;;;;;3.20;69.93;96620.31;5074446;28;20033;-72
2021/03/10 00:56:59;;;;;;;39.33;23.85;;;;;;;3.18;69.93;96604.13;5074432;28;20488;-73
2021/03/10 00:59:25;;;;;;;38.70;24.50;;;;;;;3.18;70.04;96608.50;5074725;28;20044;-73
2021/03/10 01:01:52;;;;;;;42.80;25.45;;;;;;;3.19;69.92;96616.13;5074638;28;20043;-72
2021/03/10 01:04:18;;;;;;;39.28;24.58;;;;;;;3.19;70.13;96607.50;5074749;28;20040;-73
2021/03/10 01:06:44;;;;;;;42.50;25.40;;;;;;;3.18;70.03;96605.91;5074418;28;20495;-73
2021/03/10 01:09:11;;;;;;;43.45;24.65;;;;;;;3.17;70.05;96609.47;5074248;28;20040;-73
2021/03/10 01:11:38;;;;;;;44.47;25.27;;;;;;;3.19;70.15;96615.28;5074285;28;20040;-72
2021/03/10 01:14:05;;;;;;;41.00;24.95;;;;;;;3.16;70.24;96610.44;5074415;28;20036;-72
2021/03/10 01:16:31;;;;;;;39.80;24.65;;;;;;;3.16;70.17;96608.66;5074207;28;20025;-73
2021/03/10 01:18:58;;;;;;;38.25;24.15;;;;;;;3.17;70.08;96604.28;5073039;28;20063;-73
2021/03/10 01:21:25;;;;;;;41.55;25.08;;;;;;;3.17;70.24;96612.88;5074467;28;20052;-72
2021/03/10 01:23:52;;;;;;;44.40;25.80;;;;;;;3.16;70.41;96597.50;5073815;28;20037;-73
2021/03/10 01:26:18;;;;;;;40.38;24.23;;;;;;;3.15;70.24;96601.03;5073893;28;20060;-72
2021/03/10 01:28:44;;;;;;;44.65;24.80;;;;;;;3.15;70.31;96595.84;5073866;28;20043;-73
2021/03/10 01:31:11;;;;;;;43.08;23.33;;;;;;;3.12;70.10;96597.00;5074303;28;20389;-72
2021/03/10 01:33:37;;;;;;;42.92;24.45;;;;;;;3.11;70.40;96604.94;5074052;28;20052;-72
2021/03/10 01:36:04;;;;;;;40.85;24.33;;;;;;;3.10;70.37;96596.38;5073855;28;20043;-72
2021/03/10 01:38:30;;;;;;;39.65;22.92;;;;;;;3.07;70.31;96604.47;5073939;28;20045;-72
2021/03/10 01:40:56;;;;;;;42.80;24.95;;;;;;;3.06;70.18;96610.63;5072737;28;20044;-72
2021/03/10 01:43:22;;;;;;;38.65;24.45;;;;;;;3.02;70.23;96606.75;5072130;28;20040;-72
2021/03/10 01:45:48;;;;;;;41.70;24.75;;;;;;;3.00;70.29;96598.34;5073691;28;20043;-73
2021/03/10 01:48:20;;;;;;;40.22;24.52;;;;;;;2.95;70.25;96604.03;5073713;28;20037;-73
2021/03/10 01:50:46;;;;;;;40.15;23.90;;;;;;;2.91;70.18;96597.56;5073508;28;20044;-73
2021/03/10 01:53:13;;;;;;;41.58;23.98;;;;;;;2.86;70.14;96599.84;5073866;28;20044;-73
2021/03/10 01:55:39;;;;;;;37.88;22.90;;;;;;;2.83;70.30;96603.56;5073736;28;20037;-72
2021/03/10 01:58:05;;;;;;;42.22;24.02;;;;;;;2.80;70.33;96600.50;5073428;28;20052;-72
2021/03/10 02:00:32;;;;;;;42.47;25.30;;;;;;;2.76;70.11;96597.41;5073423;28;20392;-73
2021/03/10 02:02:59;;;;;;;37.28;24.23;;;;;;;2.74;70.40;96601.97;5073321;28;20025;-73
2021/03/10 02:05:26;;;;;;;43.83;25.13;;;;;;;2.74;70.41;96601.16;5073436;28;20408;-73
2021/03/10 02:08:14;;;;;;;41.55;23.85;;;;;;;2.76;71.45;96602.59;5073605;28;20036;-73
2021/03/10 02:10:56;;;;;;;46.97;25.75;;;;;;;2.69;71.18;96593.88;5062708;28;20029;-73
2021/03/10 02:13:48;;;;;;;45.88;25.67;;;;;;;2.68;71.57;96586.28;5073392;28;20032;-72
2021/03/10 02:16:20;;;;;;;44.85;24.92;;;;;;;2.68;71.60;96592.25;5073234;28;20047;-72
2021/03/10 02:18:55;;;;;;;44.03;25.83;;;;;;;2.60;71.25;96580.16;5073229;28;20119;-73
2021/03/10 02:21:51;;;;;;;47.53;27.25;;;;;;;2.56;72.49;96576.28;5073283;28;20067;-73
2021/03/10 02:24:29;;;;;;;49.38;28.02;;;;;;;2.54;71.26;96580.81;5073315;28;20384;-73
2021/03/10 02:27:31;;;;;;;43.55;25.83;;;;;;;2.49;72.37;96580.47;5075613;28;20037;-72
2021/03/10 02:30:06;;;;;;;50.42;27.25;;;;;;;2.49;71.67;96577.09;5072921;28;20372;-72
2021/03/10 02:32:40;;;;;;;47.03;25.88;;;;;;;2.50;71.99;96582.09;5073177;28;20047;-73
2021/03/10 02:35:09;;;;;;;45.85;25.88;;;;;;;2.51;71.54;96580.31;5073324;28;20056;-72
2021/03/10 02:37:38;;;;;;;47.13;26.70;;;;;;;2.55;71.73;96582.41;5073321;28;20037;-73
2021/03/10 02:40:08;;;;;;;45.40;26.13;;;;;;;2.59;71.71;96582.91;5056777;28;20044;-72
2021/03/10 02:42:36;;;;;;;51.97;27.23;;;;;;;2.63;71.53;96579.81;5073047;28;20039;-73
2021/03/10 02:45:03;;;;;;;45.22;27.77;;;;;;;2.63;71.55;96591.97;5072737;28;20048;-73
2021/03/10 02:47:32;;;;;;;45.03;26.05;;;;;;;2.65;71.41;96602.97;5073335;28;20036;-73
2021/03/10 02:49:59;;;;;;;49.97;26.42;;;;;;;2.66;71.39;96599.38;5073018;28;20032;-72
2021/03/10 02:52:28;;;;;;;47.75;26.73;;;;;;;2.69;71.75;96596.47;5075896;28;20043;-73
2021/03/10 02:54:54;;;;;;;46.78;26.65;;;;;;;2.71;71.60;96591.94;5077245;28;20039;-72
2021/03/10 02:57:20;;;;;;;51.92;27.95;;;;;;;2.71;71.52;96591.94;5077248;28;20040;-73
2021/03/10 02:59:47;;;;;;;46.55;26.08;;;;;;;2.70;71.53;96602.47;5076806;28;20424;-73
2021/03/10 03:02:14;;;;;;;47.25;27.13;;;;;;;2.72;71.61;96601.31;5076706;28;20465;-73
2021/03/10 03:04:41;;;;;;;48.45;27.02;;;;;;;2.74;71.41;96612.31;5076528;28;20047;-73
2021/03/10 03:07:08;;;;;;;56.10;27.58;;;;;;;2.73;71.77;96604.69;5076631;28;20032;-73
2021/03/10 03:09:35;;;;;;;47.95;27.10;;;;;;;2.75;71.50;96610.53;5076370;28;20029;-73
2021/03/10 03:12:05;;;;;;;48.35;27.15;;;;;;;2.77;71.79;96629.31;5077093;28;20037;-73
2021/03/10 03:14:33;;;;;;;49.55;27.85;;;;;;;2.75;71.81;96629.50;5076767;28;20059;-73
2021/03/10 03:17:01;;;;;;;45.53;26.30;;;;;;;2.78;71.77;96625.75;5076554;28;20444;-73
2021/03/10 03:19:27;;;;;;;54.25;29.40;;;;;;;2.79;71.47;96624.78;5076871;28;20052;-73
2021/03/10 03:21:55;;;;;;;46.60;26.40;;;;;;;2.80;71.82;96629.00;5076648;28;20051;-73
2021/03/10 03:24:21;;;;;;;47.00;26.88;;;;;;;2.80;71.82;96642.75;5076005;28;20044;-72
2021/03/10 03:26:48;;;;;;;52.83;27.05;;;;;;;2.79;71.65;96646.31;5076368;28;20044;-73
2021/03/10 03:29:15;;;;;;;55.63;28.70;;;;;;;2.79;71.63;96648.06;5075667;28;20044;-73
2021/03/10 03:31:43;;;;;;;54.78;29.27;;;;;;;2.78;71.69;96643.88;5076331;28;20038;-72
2021/03/10 03:34:09;;;;;;;57.90;29.15;;;;;;;2.77;71.88;96632.72;5075894;28;20372;-73
2021/03/10 03:36:36;;;;;;;52.38;27.85;;;;;;;2.78;71.83;96625.75;5077013;28;20040;-73
2021/03/10 03:39:04;;;;;;;52.88;27.10;;;;;;;2.78;71.72;96638.69;5074882;28;20052;-72
2021/03/10 03:41:32;;;;;;;54.95;28.00;;;;;;;2.78;71.65;96636.91;5076104;28;20037;-72
2021/03/10 03:44:00;;;;;;;51.00;27.98;;;;;;;2.76;71.70;96635.47;5075851;28;20040;-73
2021/03/10 03:46:27;;;;;;;52.50;28.33;;;;;;;2.75;71.67;96644.19;5075628;28;20063;-72
2021/03/10 03:49:03;;;;;;;49.35;28.02;;;;;;;2.74;71.93;96640.00;5075480;28;20400;-73
2021/03/10 03:51:31;;;;;;;49.15;27.50;;;;;;;2.71;71.77;96637.72;5075960;28;20055;-72
2021/03/10 03:54:05;;;;;;;50.28;27.85;;;;;;;2.69;71.47;96642.25;5075655;28;20052;-73
2021/03/10 03:56:32;;;;;;;50.83;27.88;;;;;;;2.66;71.61;96638.22;5076029;28;20465;-73
2021/03/10 03:58:58;;;;;;;45.25;26.75;;;;;;;2.64;71.61;96643.56;5075576;28;20049;-72
2021/03/10 04:01:25;;;;;;;52.05;26.98;;;;;;;2.62;71.55;96647.28;5075614;28;20043;-72
2021/03/10 04:03:51;;;;;;;55.45;28.48;;;;;;;2.61;71.57;96643.88;5074067;28;20472;-73
2021/03/10 04:06:18;;;;;;;52.45;28.25;;;;;;;2.59;71.48;96648.41;5075584;28;20028;-72
2021/03/10 04:08:45;;;;;;;49.25;27.88;;;;;;;2.52;71.56;96634.53;5075426;28;20028;-72
2021/03/10 04:11:14;;;;;;;52.85;27.50;;;;;;;2.51;71.33;96635.47;5075840;28;20033;-72
2021/03/10 04:13:40;;;;;;;49.17;25.88;;;;;;;2.47;71.65;96630.78;5075455;28;20032;-72
2021/03/10 04:16:07;;;;;;;52.30;28.27;;;;;;;2.42;71.44;96626.09;5075352;28;20059;-72
2021/03/10 04:18:36;;;;;;;49.83;27.38;;;;;;;2.37;71.28;96631.78;5074936;28;20048;-72
2021/03/10 04:21:03;;;;;;;50.05;27.50;;;;;;;2.32;71.24;96641.78;5075547;28;20044;-73
2021/03/10 04:23:29;;;;;;;48.50;26.45;;;;;;;2.28;71.26;96647.44;5075295;28;20483;-72
2021/03/10 04:25:55;;;;;;;48.67;26.73;;;;;;;2.24;71.32;96640.00;5075232;28;20036;-72
2021/03/10 04:28:21;;;;;;;52.50;28.27;;;;;;;2.21;71.33;96645.50;5075160;28;20040;-73
2021/03/10 04:30:48;;;;;;;48.83;27.55;;;;;;;2.20;71.32;96643.88;5075096;28;20115;-73
2021/03/10 04:33:14;;;;;;;52.92;27.10;;;;;;;2.16;71.37;96634.84;5075293;28;20048;-72
2021/03/10 04:35:40;;;;;;;55.53;28.92;;;;;;;2.13;71.42;96636.94;5074903;28;20036;-72
2021/03/10 04:38:06;;;;;;;53.88;27.88;;;;;;;2.08;71.21;96634.00;5075288;28;20028;-73
2021/03/10 04:40:33;;;;;;;56.30;29.98;;;;;;;2.02;71.23;96644.03;5075159;28;20036;-72
2021/03/10 04:42:59;;;;;;;49.88;26.10;;;;;;;1.98;71.22;96649.69;5074756;28;20043;-73
2021/03/10 04:45:25;;;;;;;55.88;28.00;;;;;;;1.95;71.16;96655.97;5075093;28;20032;-73
2021/03/10 04:47:51;;;;;;;54.33;28.13;;;;;;;1.91;71.30;96657.25;5074572;28;20043;-73
2021/03/10 04:50:18;;;;;;;56.75;28.13;;;;;;;1.88;71.21;96651.59;5073500;28;20155;-72
2021/03/10 04:52:44;;;;;;;54.40;28.52;;;;;;;1.83;71.35;96652.06;5074529;28;20396;-72
2021/03/10 04:55:11;;;;;;;53.28;28.75;;;;;;;1.79;71.11;96654.16;5074494;28;20048;-72
2021/03/10 04:57:38;;;;;;;51.10;27.10;;;;;;;1.75;71.06;96662.38;5074578;28;20041;-72
2021/03/10 05:00:09;;;;;;;52.00;26.30;;;;;;;1.70;71.11;96667.19;5074784;28;20037;-73
2021/03/10 05:02:37;;;;;;;53.53;26.95;;;;;;;1.65;71.15;96675.44;5075078;28;20392;-72
2021/03/10 05:05:07;;;;;;;54.10;27.23;;;;;;;1.60;70.99;96670.72;5074426;28;20401;-72
2021/03/10 05:07:35;;;;;;;56.83;28.25;;;;;;;1.54;70.97;96673.13;5074325;28;20394;-73
2021/03/10 05:10:02;;;;;;;59.50;27.98;;;;;;;1.48;71.02;96666.00;5074288;28;20040;-73
2021/03/10 05:12:30;;;;;;;57.17;28.48;;;;;;;1.38;71.12;96660.94;5074453;28;20039;-73
2021/03/10 05:14:57;;;;;;;56.55;28.67;;;;;;;1.33;71.39;96665.78;5074359;28;20039;-73
2021/03/10 05:17:25;;;;;;;54.13;27.45;;;;;;;1.30;71.56;96673.81;5074140;28;20048;-73
2021/03/10 05:19:57;;;;;;;53.05;28.05;;;;;;;1.31;71.63;96675.44;5073646;28;20416;-72
2021/03/10 05:22:25;;;;;;;53.65;26.98;;;;;;;1.31;71.75;96668.50;5074259;28;20496;-73
2021/03/10 05:24:51;;;;;;;67.80;31.00;;;;;;;1.35;72.08;96674.97;5073807;28;20045;-73
2021/03/10 05:27:17;;;;;;;59.10;30.85;;;;;;;1.32;72.31;96680.44;5074029;28;20099;-72
2021/03/10 05:29:44;;;;;;;53.97;28.65;;;;;;;1.35;72.13;96682.72;5074116;28;20037;-73
2021/03/10 05:32:10;;;;;;;59.50;31.27;;;;;;;1.39;72.38;96675.50;5074163;28;20387;-72
2021/03/10 05:34:37;;;;;;;61.20;32.78;;;;;;;1.42;72.63;96675.97;5073874;28;20035;-73
2021/03/10 05:37:04;;;;;;;61.38;32.25;;;;;;;1.48;72.47;96678.91;5073802;28;20044;-72
2021/03/10 05:39:30;;;;;;;63.53;31.52;;;;;;;1.52;72.66;96680.22;5073578;28;20041;-73
2021/03/10 05:41:57;;;;;;;60.13;30.75;;;;;;;1.54;72.63;96686.06;5072945;28;20049;-73
2021/03/10 05:44:25;;;;;;;59.90;31.70;;;;;;;1.57;72.75;96683.94;5072811;28;20111;-72
2021/03/10 05:46:53;;;;;;;56.25;29.20;;;;;;;1.61;72.76;96685.25;5073626;28;20028;-73
2021/03/10 05:49:20;;;;;;;59.47;29.60;;;;;;;1.66;72.74;96683.97;5073498;28;20041;-73
2021/03/10 05:51:49;;;;;;;62.78;31.13;;;;;;;1.69;72.99;96684.50;5073431;28;20367;-73
2021/03/10 05:54:18;;;;;;;62.30;30.48;;;;;;;1.72;72.84;96678.19;5073418;28;20487;-73
2021/03/10 05:56:45;;;;;;;58.22;29.73;;;;;;;1.75;72.95;96688.25;5073605;28;20031;-73
2021/03/10 05:59:12;;;;;;;62.15;30.88;;;;;;;1.76;72.90;96689.84;5073791;28;20032;-73
2021/03/10 06:01:38;;;;;;;73.68;34.28;;;;;;;1.76;73.27;96688.06;5073712;28;20036;-73
2021/03/10 06:04:07;;;;;;;55.25;29.42;;;;;;;1.76;73.16;96692.44;5072225;28;20495;-73
2021/03/10 06:06:34;;;;;;;53.97;28.33;;;;;;;1.78;73.19;96695.66;5073110;28;20028;-73
2021/03/10 06:09:17;;;;;;;57.33;31.30;;;;;;;1.80;74.30;96709.25;5073152;28;20028;-73
2021/03/10 06:11:57;;;;;;;52.65;28.75;;;;;;;1.81;74.21;96701.34;5065385;28;20040;-73
2021/03/10 06:14:25;;;;;;;61.08;30.10;;;;;;;1.86;73.63;96720.75;5073290;28;20043;-73
2021/03/10 06:17:09;;;;;;;55.38;27.45;;;;;;;1.86;74.25;96718.97;5073056;28;20033;-73
2021/03/10 06:19:46;;;;;;;55.25;29.20;;;;;;;1.88;74.33;96719.63;5073411;28;20083;-72
2021/03/10 06:22:14;;;;;;;54.58;29.08;;;;;;;1.92;73.63;96714.97;5073513;28;20056;-72
2021/03/10 06:24:41;;;;;;;56.50;28.45;;;;;;;1.96;73.61;96721.44;5072836;28;20041;-73
2021/03/10 06:27:08;;;;;;;60.53;29.30;;;;;;;2.01;73.74;96727.75;5072753;28;20044;-73
2021/03/10 06:29:35;;;;;;;67.53;29.88;;;;;;;2.06;73.79;96729.06;5072883;28;20461;-72
2021/03/10 06:32:09;;;;;;;55.25;28.98;;;;;;;2.09;74.18;96715.81;5072052;28;20037;-72
2021/03/10 06:34:49;;;;;;;54.97;27.33;;;;;;;2.15;74.63;96721.16;5071727;28;20473;-73
2021/03/10 06:37:27;;;;;;;54.80;27.73;;;;;;;2.19;74.30;96716.50;5073028;28;20059;-73
2021/03/10 06:40:05;;;;;;;56.47;29.85;;;;;;;2.24;73.85;96727.97;5073218;28;20040;-73
2021/03/10 06:42:31;;;;;;;58.70;29.10;;;;;;;2.27;73.94;96710.50;5073274;28;20045;-73
2021/03/10 06:44:57;;;;;;;55.95;29.27;;;;;;;2.21;73.70;96730.09;5073106;28;20056;-73
2021/03/10 06:47:35;;;;;;;52.70;27.60;;;;;;;2.21;74.26;96730.88;5072988;28;20041;-73
2021/03/10 06:50:02;;;;;;;55.53;30.50;;;;;;;2.26;73.95;96724.44;5073031;28;20036;-73
2021/03/10 06:52:28;;;;;;;57.00;28.17;;;;;;;2.24;73.90;96727.97;5072130;28;20045;-73
2021/03/10 06:54:57;;;;;;;55.45;29.33;;;;;;;2.28;73.91;96730.25;5072784;28;20465;-73
2021/03/10 06:57:24;;;;;;;54.45;29.55;;;;;;;2.30;74.03;96733.50;5073346;28;20024;-72
2021/03/10 06:59:52;;;;;;;54.85;28.92;;;;;;;2.31;74.02;96735.09;5072746;28;20040;-72
2021/03/10 07:02:30;;;;;;;29.85;16.92;;;;;;;2.50;80.02;96731.41;5072834;28;20029;-71
2021/03/10 07:04:58;;;;;;;37.00;18.17;;;;;;;3.38;89.60;96723.78;5073025;28;20048;-72
2021/03/10 07:07:30;;;;;;;52.75;27.77;;;;;;;3.88;77.89;96734.00;5072787;28;20040;-73
2021/03/10 07:09:57;;;;;;;53.22;27.92;;;;;;;3.96;75.00;96747.75;5060975;28;20048;-73
2021/03/10 07:12:25;;;;;;;54.95;28.70;;;;;;;3.88;73.77;96744.38;5072840;28;20029;-73
2021/03/10 07:14:52;;;;;;;52.00;29.02;;;;;;;3.76;73.31;96749.09;5072559;28;20400;-74
2021/03/10 07:17:23;;;;;;;52.60;28.38;;;;;;;3.64;73.09;96749.47;5071759;28;20040;-73
2021/03/10 07:19:49;;;;;;;53.60;28.08;;;;;;;3.55;73.29;96741.88;5070522;28;20397;-73
2021/03/10 07:22:36;;;;;;;58.08;29.92;;;;;;;3.44;73.31;96749.06;5071923;28;20056;-73
2021/03/10 07:25:07;;;;;;;57.28;30.75;;;;;;;3.39;73.34;96753.09;5072575;28;20028;-73
2021/03/10 07:27:46;;;;;;;58.40;30.48;;;;;;;3.34;73.40;96752.78;5072450;28;20025;-73
2021/03/10 07:30:13;;;;;;;58.33;31.05;;;;;;;3.34;73.67;96755.38;5072652;28;20035;-73
2021/03/10 07:32:40;;;;;;;54.28;29.55;;;;;;;3.34;73.54;96755.38;5072601;28;20029;-73
2021/03/10 07:35:09;;;;;;;59.45;30.70;;;;;;;3.35;73.71;96760.41;5072696;28;20039;-72
2021/03/10 07:37:37;;;;;;;62.92;31.52;;;;;;;3.38;73.70;96770.44;5072572;28;20036;-73
2021/03/10 07:40:07;;;;;;;58.22;30.73;;;;;;;3.39;73.89;96771.25;5075547;28;20044;-73
2021/03/10 07:42:33;;;;;;;66.05;31.65;;;;;;;3.43;73.56;96772.53;5076145;28;20044;-73
2021/03/10 07:45:00;;;;;;;61.83;31.60;;;;;;;3.46;73.68;96779.97;5075907;28;20044;-73
2021/03/10 07:47:26;;;;;;;62.35;31.02;;;;;;;3.48;73.55;96783.22;5076387;28;20036;-72
2021/03/10 07:50:00;;;;;;;59.53;32.20;;;;;;;3.45;73.31;96786.16;5075780;28;20036;-73
2021/03/10 07:52:28;;;;;;;65.95;33.35;;;;;;;3.37;73.37;96783.56;5075852;28;20047;-73
2021/03/10 07:55:00;;;;;;;60.25;31.63;;;;;;;3.27;73.50;96791.50;5075493;28;20047;-73
2021/03/10 07:57:27;;;;;;;67.22;34.17;;;;;;;3.25;73.53;96793.44;5076068;28;20041;-73
2021/03/10 07:59:58;;;;;;;62.20;32.22;;;;;;;3.18;73.59;96798.47;5075607;28;20052;-73
2021/03/10 08:02:26;;;;;;;58.55;30.95;;;;;;;3.18;73.78;96792.50;5074445;28;20039;-72
2021/03/10 08:04:54;;;;;;;65.60;32.17;;;;;;;3.18;73.79;96798.47;5075601;28;20511;-73
2021/03/10 08:07:26;;;;;;;63.95;32.13;;;;;;;3.21;73.66;96793.00;5075510;28;20032;-73
2021/03/10 08:09:53;;;;;;;65.50;34.00;;;;;;;3.23;73.64;96795.41;5074531;28;20052;-73
2021/03/10 08:12:38;;;;;;;66.38;33.40;;;;;;;3.22;74.18;96799.78;5075730;28;20044;-73
2021/03/10 08:15:07;;;;;;;64.93;34.35;;;;;;;3.23;73.86;96801.41;5075484;28;20048;-73
2021/03/10 08:17:33;;;;;;;63.17;33.85;;;;;;;3.22;74.08;96801.56;5075620;28;20036;-73
2021/03/10 08:20:04;;;;;;;63.38;33.70;;;;;;;3.25;73.71;96801.22;5075418;28;20057;-73
2021/03/10 08:22:33;;;;;;;68.05;34.22;;;;;;;3.29;73.83;96799.13;5074419;28;20059;-73
2021/03/10 08:25:01;;;;;;;65.00;32.28;;;;;;;3.34;74.02;96804.63;5075379;28;20043;-73
2021/03/10 08:27:35;;;;;;;67.72;33.00;;;;;;;3.39;74.02;96804.97;5075418;28;20400;-73
2021/03/10 08:30:06;;;;;;;62.28;32.08;;;;;;;3.49;73.61;96800.41;5075229;28;20048;-73
2021/03/10 08:32:33;;;;;;;64.18;33.88;;;;;;;3.62;74.07;96807.69;5075534;28;20045;-73
2021/03/10 08:35:18;;;;;;;74.80;36.63;;;;;;;3.73;73.72;96803.94;5075222;28;20401;-73
2021/03/10 08:37:54;;;;;;;;;;;;;;;3.81;73.55;96807.31;5063825;28;20063;-72
2021/03/10 08:40:25;;;;;;;68.43;33.28;;;;;;;3.86;73.35;96807.63;5074949;28;19920;-73
2021/03/10 08:42:52;;;;;;;70.78;36.33;;;;;;;3.92;73.19;96806.13;5061421;28;20037;-73
2021/03/10 08:45:39;;;;;;;64.07;33.17;;;;;;;3.95;73.13;96811.00;5075061;28;20048;-73
2021/03/10 08:48:08;;;;;;;63.40;33.70;;;;;;;4.00;72.97;96805.31;5060434;28;20041;-73
2021/03/10 08:50:52;;;;;;;58.20;32.63;;;;;;;4.04;72.93;96806.59;5074584;28;20039;-73
2021/03/10 08:53:24;;;;;;;;;;;;;;;4.07;72.62;96806.25;5075254;28;20465;-73
2021/03/10 08:55:50;;;;;;;69.13;33.40;;;;;;;4.07;72.75;96798.47;5075174;28;19975;-73
2021/03/10 08:58:18;;;;;;;58.28;31.70;;;;;;;4.14;72.72;96804.63;5074435;28;20043;-73
2021/03/10 09:00:45;;;;;;;66.15;34.42;;;;;;;4.20;72.66;96803.94;5074632;28;20039;-73
2021/03/10 09:03:14;;;;;;;69.25;34.75;;;;;;;4.30;72.78;96805.50;5074521;28;20453;-73
2021/03/10 09:05:42;;;;;;;62.22;34.05;;;;;;;4.42;72.45;96809.34;5074056;28;20048;-72
2021/03/10 09:08:10;;;;;;;60.17;33.05;;;;;;;4.44;72.23;96810.00;5074243;28;20457;-73
2021/03/10 09:10:38;;;;;;;58.22;33.38;;;;;;;4.43;72.13;96808.38;5074729;28;20032;-73
2021/03/10 09:13:05;;;;;;;62.35;34.15;;;;;;;4.46;72.12;96803.66;5074369;28;20045;-73
2021/03/10 09:15:32;;;;;;;64.90;32.67;;;;;;;4.52;72.20;96802.16;5074174;28;20464;-73
2021/03/10 09:18:06;;;;;;;65.72;33.83;;;;;;;4.58;70.79;96803.28;5073780;28;20044;-73
2021/03/10 09:20:39;;;;;;;67.28;34.33;;;;;;;4.60;71.42;96807.31;5073886;28;20057;-73
2021/03/10 09:23:08;;;;;;;67.72;34.28;;;;;;;4.63;71.51;96806.16;5074350;28;20028;-73
2021/03/10 09:25:36;;;;;;;59.22;32.20;;;;;;;4.74;71.76;96812.75;5074147;28;20045;-73
2021/03/10 09:28:06;;;;;;;69.63;36.67;;;;;;;4.83;71.20;96811.72;5073958;28;20111;-73
2021/03/10 09:30:35;;;;;;;59.65;31.83;;;;;;;4.90;71.02;96811.84;5073663;28;20059;-73
2021/03/10 09:33:03;;;;;;;56.28;30.13;;;;;;;5.02;71.31;96811.28;5073406;28;20070;-73
2021/03/10 09:35:35;;;;;;;59.60;32.70;;;;;;;5.14;70.46;96813.47;5074224;28;20036;-73
2021/03/10 09:38:10;;;;;;;58.83;31.10;;;;;;;5.27;70.16;96805.88;5073971;28;20043;-73
2021/03/10 09:40:36;;;;;;;57.17;31.33;;;;;;;5.40;70.52;96805.28;5073898;28;20036;-73
2021/03/10 09:43:07;;;;;;;58.90;31.75;;;;;;;5.44;70.17;96801.38;5073569;28;20039;-73
2021/03/10 09:45:36;;;;;;;60.40;32.28;;;;;;;5.52;69.75;96792.66;5073893;28;20366;-73
2021/03/10 09:48:05;;;;;;;51.13;29.48;;;;;;;5.65;69.47;96798.88;5073710;28;20361;-73
2021/03/10 09:50:37;;;;;;;63.92;35.42;;;;;;;5.85;69.39;96799.16;5073347;28;20029;-73
2021/03/10 09:53:18;;;;;;;53.03;30.00;;;;;;;6.14;66.51;96794.16;5073597;28;20036;-73
2021/03/10 09:55:45;;;;;;;47.47;25.83;;;;;;;6.47;68.76;96789.34;5073740;28;20575;-73
2021/03/10 09:58:13;;;;;;;49.15;26.83;;;;;;;6.67;67.80;96782.53;5073104;28;20044;-73
2021/03/10 10:00:42;;;;;;;45.97;25.40;;;;;;;6.82;67.17;96790.31;5072899;28;20041;-73
2021/03/10 10:03:10;;;;;;;45.75;25.90;;;;;;;7.00;67.14;96776.84;5073726;28;20366;-73
2021/03/10 10:05:39;;;;;;;46.42;26.75;;;;;;;7.18;66.72;96783.41;5073304;28;20032;-73
2021/03/10 10:08:10;;;;;;;42.55;25.48;;;;;;;7.26;64.67;96784.09;5073191;28;20044;-73
2021/03/10 10:10:37;;;;;;;43.03;24.98;;;;;;;7.37;65.78;96784.56;5073810;28;20044;-73
2021/03/10 10:13:05;;;;;;;42.05;23.90;;;;;;;7.43;65.34;96779.44;5073205;28;20405;-73
2021/03/10 10:15:33;;;;;;;39.20;23.23;;;;;;;7.45;64.15;96782.63;5073348;28;20049;-73
2021/03/10 10:18:03;;;;;;;42.25;22.23;;;;;;;7.53;64.29;96781.69;5073205;28;20048;-73
2021/03/10 10:20:33;;;;;;;41.80;23.80;;;;;;;7.57;63.70;96780.31;5073143;28;20045;-73
2021/03/10 10:23:00;;;;;;;37.05;22.83;;;;;;;7.56;63.33;96776.09;5071571;28;20052;-73
2021/03/10 10:25:26;;;;;;;36.13;21.98;;;;;;;7.64;63.50;96772.53;5073340;28;20033;-73
2021/03/10 10:27:53;;;;;;;38.25;22.48;;;;;;;7.86;63.41;96774.06;5072742;28;20044;-73
2021/03/10 10:30:20;;;;;;;39.67;22.38;;;;;;;8.11;62.89;96771.00;5072811;28;20051;-73
2021/03/10 10:32:50;;;;;;;35.80;21.08;;;;;;;8.36;62.07;96773.09;5073140;28;20033;-73
2021/03/10 10:35:18;;;;;;;34.00;21.20;;;;;;;8.50;61.37;96766.94;5072591;28;20053;-73
2021/03/10 10:37:45;;;;;;;36.25;22.13;;;;;;;8.54;61.10;96771.56;5073283;28;20037;-73
2021/03/10 10:40:18;;;;;;;37.28;23.40;;;;;;;8.47;58.17;96755.06;5072583;28;20044;-73
2021/03/10 10:42:46;;;;;;;28.77;16.92;;;;;;;8.44;59.83;96767.72;5073300;28;20036;-73
2021/03/10 10:45:13;;;;;;;29.65;17.77;;;;;;;8.36;59.82;96760.03;5073005;28;20043;-73
2021/03/10 10:47:40;;;;;;;31.80;19.15;;;;;;;8.35;59.68;96761.84;5056779;28;20029;-73
2021/03/10 10:50:07;;;;;;;27.90;17.48;;;;;;;8.31;59.27;96761.41;5072654;28;20051;-73
2021/03/10 10:52:35;;;;;;;24.67;14.90;;;;;;;8.28;58.57;96746.13;5072553;28;20052;-72
2021/03/10 10:55:05;;;;;;;29.88;17.75;;;;;;;8.33;57.80;96748.97;5073090;28;20397;-73
2021/03/10 10:57:31;;;;;;;27.40;17.92;;;;;;;8.40;57.67;96751.63;5072277;28;20036;-73
2021/03/10 10:59:58;;;;;;;27.23;15.65;;;;;;;8.46;57.26;96752.66;5072791;28;20029;-73
2021/03/10 11:02:24;;;;;;;25.55;15.70;;;;;;;8.46;56.78;96740.41;5072771;28;20478;-73
2021/03/10 11:04:51;;;;;;;25.92;15.27;;;;;;;8.42;56.60;96746.19;5073077;28;20048;-73
2021/03/10 11:07:17;;;;;;;24.70;15.10;;;;;;;8.34;56.30;96739.34;5072388;28;20044;-73
2021/03/10 11:09:43;;;;;;;24.98;15.15;;;;;;;8.25;55.62;96736.09;5073187;28;20464;-73
2021/03/10 11:12:12;;;;;;;22.15;13.93;;;;;;;8.17;55.54;96736.25;5073114;28;20048;-73
2021/03/10 11:14:39;;;;;;;23.55;15.05;;;;;;;8.11;55.27;96731.81;5076391;28;20041;-73
2021/03/10 11:17:06;;;;;;;23.20;14.63;;;;;;;8.10;55.21;96728.38;5076443;28;20036;-73
2021/03/10 11:19:36;;;;;;;22.88;13.05;;;;;;;8.06;54.57;96723.72;5075039;28;20052;-73
2021/03/10 11:22:04;;;;;;;18.10;11.25;;;;;;;8.03;54.22;96719.72;5076028;28;20056;-73
2021/03/10 11:24:30;;;;;;;25.65;13.27;;;;;;;8.01;54.06;96716.50;5076730;28;20049;-73
2021/03/10 11:26:57;;;;;;;19.35;12.45;;;;;;;7.99;53.80;96709.84;5076284;28;20420;-72
2021/03/10 11:29:23;;;;;;;19.13;12.98;;;;;;;8.04;53.69;96718.72;5075589;28;20028;-72
2021/03/10 11:31:49;;;;;;;23.15;13.27;;;;;;;8.11;53.32;96705.69;5075601;28;20052;-72
2021/03/10 11:34:16;;;;;;;19.17;11.90;;;;;;;8.13;52.82;96695.84;5076067;28;20058;-72